sensor_id;sensor_type;location;lat;lon;timestamp;P1;durP1;ratioP1;P2;durP2;ratioP2
4084;SDS011;2057;50.858;6.572;2022-09-27T00:02:15;4.03;;;3.00;;
4084;SDS011;2057;50.858;6.572;2022-09-27T00:04:40;4.57;;;2.23;;
4084;SDS011;2057;50.858;6.572;2022-09-27T00:07:06;8.07;;;3.00;;
4084;SDS011;2057;50.858;6.572;2022-09-27T00:09:31;2.97;;;1.43;;
4084;SDS011;2057;50.858;6.572;2022-09-27T00:11:57;13.17;;;2.07;;
4084;SDS011;2057;50.858;6.572;2022-09-27T00:14:22;4.03;;;1.43;;
4084;SDS011;2057;50.858;6.572;2022-09-27T00:16:48;14.67;;;1.97;;
4084;SDS011;2057;50.858;6.572;2022-09-27T00:19:14;5.67;;;2.00;;
4084;SDS011;2057;50.858;6.572;2022-09-27T00:21:42;4.27;;;1.77;;
4084;SDS011;2057;50.858;6.572;2022-09-27T00:24:15;10.47;;;1.67;;
4084;SDS011;2057;50.858;6.572;2022-09-27T00:26:43;1.57;;;1.47;;
4084;SDS011;2057;50.858;6.572;2022-09-27T00:29:11;11.17;;;1.90;;
4084;SDS011;2057;50.858;6.572;2022-09-27T00:31:37;8.70;;;1.60;;
4084;SDS011;2057;50.858;6.572;2022-09-27T00:34:03;6.47;;;1.90;;
4084;SDS011;2057;50.858;6.572;2022-09-27T00:36:32;4.13;;;1.50;;
4084;SDS011;2057;50.858;6.572;2022-09-27T00:38:58;6.23;;;1.60;;
4084;SDS011;2057;50.858;6.572;2022-09-27T00:41:26;7.13;;;1.50;;
4084;SDS011;2057;50.858;6.572;2022-09-27T00:43:55;8.03;;;1.60;;
4084;SDS011;2057;50.858;6.572;2022-09-27T00:51:29;3.00;;;1.40;;
4084;SDS011;2057;50.858;6.572;2022-09-27T00:53:57;6.33;;;1.93;;
4084;SDS011;2057;50.858;6.572;2022-09-27T00:56:26;5.87;;;1.70;;
4084;SDS011;2057;50.858;6.572;2022-09-27T00:58:55;3.30;;;1.40;;
4084;SDS011;2057;50.858;6.572;2022-09-27T01:01:26;5.00;;;1.80;;
4084;SDS011;2057;50.858;6.572;2022-09-27T01:04:07;8.50;;;1.70;;
4084;SDS011;2057;50.858;6.572;2022-09-27T01:06:35;6.00;;;1.40;;
4084;SDS011;2057;50.858;6.572;2022-09-27T01:09:06;9.47;;;1.87;;
4084;SDS011;2057;50.858;6.572;2022-09-27T01:25:35;2.30;;;1.77;;
4084;SDS011;2057;50.858;6.572;2022-09-27T01:28:18;4.50;;;1.90;;
4084;SDS011;2057;50.858;6.572;2022-09-27T01:36:26;9.70;;;2.67;;
4084;SDS011;2057;50.858;6.572;2022-09-27T01:38:56;5.63;;;2.53;;
4084;SDS011;2057;50.858;6.572;2022-09-27T01:47:34;4.53;;;2.23;;
4084;SDS011;2057;50.858;6.572;2022-09-27T01:50:13;5.20;;;2.20;;
4084;SDS011;2057;50.858;6.572;2022-09-27T01:55:15;7.83;;;2.47;;
4084;SDS011;2057;50.858;6.572;2022-09-27T01:57:48;15.53;;;2.50;;
4084;SDS011;2057;50.858;6.572;2022-09-27T02:00:19;15.70;;;2.73;;
4084;SDS011;2057;50.858;6.572;2022-09-27T02:02:49;3.47;;;2.30;;
4084;SDS011;2057;50.858;6.572;2022-09-27T02:05:19;5.20;;;2.33;;
4084;SDS011;2057;50.858;6.572;2022-09-27T02:07:54;7.33;;;2.73;;
4084;SDS011;2057;50.858;6.572;2022-09-27T02:10:25;6.57;;;2.03;;
4084;SDS011;2057;50.858;6.572;2022-09-27T02:12:57;2.80;;;2.07;;
4084;SDS011;2057;50.858;6.572;2022-09-27T02:15:31;3.27;;;1.57;;
4084;SDS011;2057;50.858;6.572;2022-09-27T02:18:10;8.30;;;2.50;;
4084;SDS011;2057;50.858;6.572;2022-09-27T02:20:43;4.97;;;2.33;;
4084;SDS011;2057;50.858;6.572;2022-09-27T02:25:50;2.67;;;1.40;;
4084;SDS011;2057;50.858;6.572;2022-09-27T02:28:29;7.20;;;1.30;;
4084;SDS011;2057;50.858;6.572;2022-09-27T02:30:57;3.83;;;1.20;;
4084;SDS011;2057;50.858;6.572;2022-09-27T02:33:25;1.37;;;1.27;;
4084;SDS011;2057;50.858;6.572;2022-09-27T02:35:56;8.10;;;2.73;;
4084;SDS011;2057;50.858;6.572;2022-09-27T02:38:23;7.03;;;1.60;;
4084;SDS011;2057;50.858;6.572;2022-09-27T02:40:49;7.20;;;1.60;;
4084;SDS011;2057;50.858;6.572;2022-09-27T02:43:15;9.90;;;1.70;;
4084;SDS011;2057;50.858;6.572;2022-09-27T02:51:47;6.23;;;1.37;;
4084;SDS011;2057;50.858;6.572;2022-09-27T02:54:54;3.47;;;1.13;;
4084;SDS011;2057;50.858;6.572;2022-09-27T03:03:52;3.97;;;0.97;;
4084;SDS011;2057;50.858;6.572;2022-09-27T03:06:13;1.07;;;0.90;;
4084;SDS011;2057;50.858;6.572;2022-09-27T03:08:42;1.47;;;0.87;;
4084;SDS011;2057;50.858;6.572;2022-09-27T03:11:08;0.80;;;0.80;;
4084;SDS011;2057;50.858;6.572;2022-09-27T03:13:33;7.30;;;1.30;;
4084;SDS011;2057;50.858;6.572;2022-09-27T03:16:02;8.77;;;1.63;;
4084;SDS011;2057;50.858;6.572;2022-09-27T03:18:28;13.67;;;1.63;;
4084;SDS011;2057;50.858;6.572;2022-09-27T03:20:54;11.50;;;1.77;;
4084;SDS011;2057;50.858;6.572;2022-09-27T03:23:19;4.30;;;1.47;;
4084;SDS011;2057;50.858;6.572;2022-09-27T03:25:45;5.03;;;1.87;;
4084;SDS011;2057;50.858;6.572;2022-09-27T03:28:11;4.70;;;1.47;;
4084;SDS011;2057;50.858;6.572;2022-09-27T03:30:37;2.70;;;1.20;;
4084;SDS011;2057;50.858;6.572;2022-09-27T03:33:02;8.63;;;2.07;;
4084;SDS011;2057;50.858;6.572;2022-09-27T03:35:28;4.10;;;1.90;;
4084;SDS011;2057;50.858;6.572;2022-09-27T03:37:54;8.10;;;1.87;;
4084;SDS011;2057;50.858;6.572;2022-09-27T03:40:19;5.77;;;2.07;;
4084;SDS011;2057;50.858;6.572;2022-09-27T03:42:44;8.00;;;2.00;;
4084;SDS011;2057;50.858;6.572;2022-09-27T03:45:10;2.90;;;1.53;;
4084;SDS011;2057;50.858;6.572;2022-09-27T03:47:38;4.83;;;1.80;;
4084;SDS011;2057;50.858;6.572;2022-09-27T03:50:05;3.80;;;1.83;;
4084;SDS011;2057;50.858;6.572;2022-09-27T03:52:32;5.00;;;1.50;;
4084;SDS011;2057;50.858;6.572;2022-09-27T03:54:58;8.03;;;2.10;;
4084;SDS011;2057;50.858;6.572;2022-09-27T03:57:23;7.93;;;2.00;;
4084;SDS011;2057;50.858;6.572;2022-09-27T03:59:49;5.70;;;1.63;;
4084;SDS011;2057;50.858;6.572;2022-09-27T04:02:15;5.73;;;1.70;;
4084;SDS011;2057;50.858;6.572;2022-09-27T04:04:40;5.83;;;1.50;;
4084;SDS011;2057;50.858;6.572;2022-09-27T04:07:05;12.47;;;2.17;;
4084;SDS011;2057;50.858;6.572;2022-09-27T04:09:32;6.63;;;1.90;;
4084;SDS011;2057;50.858;6.572;2022-09-27T04:11:57;2.20;;;1.50;;
4084;SDS011;2057;50.858;6.572;2022-09-27T04:14:23;12.70;;;1.60;;
4084;SDS011;2057;50.858;6.572;2022-09-27T04:16:48;4.93;;;1.67;;
4084;SDS011;2057;50.858;6.572;2022-09-27T04:19:13;7.27;;;1.70;;
4084;SDS011;2057;50.858;6.572;2022-09-27T04:21:39;8.40;;;1.93;;
4084;SDS011;2057;50.858;6.572;2022-09-27T04:24:04;14.63;;;1.77;;
4084;SDS011;2057;50.858;6.572;2022-09-27T04:26:31;5.00;;;1.40;;
4084;SDS011;2057;50.858;6.572;2022-09-27T04:28:57;4.20;;;1.42;;
4084;SDS011;2057;50.858;6.572;2022-09-27T04:31:23;8.33;;;1.50;;
4084;SDS011;2057;50.858;6.572;2022-09-27T04:33:48;5.73;;;1.40;;
4084;SDS011;2057;50.858;6.572;2022-09-27T04:36:18;8.83;;;1.57;;
4084;SDS011;2057;50.858;6.572;2022-09-27T04:38:55;6.30;;;1.60;;
4084;SDS011;2057;50.858;6.572;2022-09-27T04:41:23;1.90;;;1.47;;
4084;SDS011;2057;50.858;6.572;2022-09-27T04:43:50;4.10;;;1.50;;
4084;SDS011;2057;50.858;6.572;2022-09-27T04:46:16;7.63;;;1.80;;
4084;SDS011;2057;50.858;6.572;2022-09-27T04:48:42;3.17;;;1.43;;
4084;SDS011;2057;50.858;6.572;2022-09-27T04:51:08;4.30;;;1.93;;
4084;SDS011;2057;50.858;6.572;2022-09-27T04:53:34;6.15;;;1.63;;
4084;SDS011;2057;50.858;6.572;2022-09-27T04:55:59;6.33;;;2.77;;
4084;SDS011;2057;50.858;6.572;2022-09-27T04:58:30;4.30;;;1.83;;
4084;SDS011;2057;50.858;6.572;2022-09-27T05:00:58;4.20;;;1.97;;
4084;SDS011;2057;50.858;6.572;2022-09-27T05:03:28;5.90;;;1.93;;
4084;SDS011;2057;50.858;6.572;2022-09-27T05:05:57;11.17;;;2.10;;
4084;SDS011;2057;50.858;6.572;2022-09-27T05:08:23;6.00;;;1.52;;
4084;SDS011;2057;50.858;6.572;2022-09-27T05:10:52;9.03;;;1.80;;
4084;SDS011;2057;50.858;6.572;2022-09-27T05:13:18;4.17;;;2.20;;
4084;SDS011;2057;50.858;6.572;2022-09-27T05:15:44;9.23;;;1.77;;
4084;SDS011;2057;50.858;6.572;2022-09-27T05:18:10;5.17;;;1.93;;
4084;SDS011;2057;50.858;6.572;2022-09-27T05:20:35;10.20;;;1.80;;
4084;SDS011;2057;50.858;6.572;2022-09-27T05:23:02;5.90;;;1.67;;
4084;SDS011;2057;50.858;6.572;2022-09-27T05:25:29;6.70;;;1.77;;
4084;SDS011;2057;50.858;6.572;2022-09-27T05:27:55;3.15;;;1.90;;
4084;SDS011;2057;50.858;6.572;2022-09-27T05:30:26;8.90;;;2.30;;
4084;SDS011;2057;50.858;6.572;2022-09-27T05:32:51;7.85;;;2.00;;
4084;SDS011;2057;50.858;6.572;2022-09-27T05:35:18;2.03;;;1.00;;
4084;SDS011;2057;50.858;6.572;2022-09-27T05:37:53;3.33;;;1.65;;
4084;SDS011;2057;50.858;6.572;2022-09-27T05:40:21;8.73;;;2.00;;
4084;SDS011;2057;50.858;6.572;2022-09-27T05:42:47;15.95;;;2.22;;
4084;SDS011;2057;50.858;6.572;2022-09-27T05:45:14;6.13;;;1.92;;
4084;SDS011;2057;50.858;6.572;2022-09-27T05:47:40;12.18;;;2.00;;
4084;SDS011;2057;50.858;6.572;2022-09-27T05:50:05;6.30;;;2.10;;
4084;SDS011;2057;50.858;6.572;2022-09-27T05:52:33;6.10;;;2.17;;
4084;SDS011;2057;50.858;6.572;2022-09-27T05:54:59;11.07;;;2.10;;
4084;SDS011;2057;50.858;6.572;2022-09-27T05:57:25;4.60;;;1.77;;
4084;SDS011;2057;50.858;6.572;2022-09-27T05:59:50;6.20;;;2.20;;
4084;SDS011;2057;50.858;6.572;2022-09-27T06:02:15;7.27;;;2.13;;
4084;SDS011;2057;50.858;6.572;2022-09-27T06:04:42;9.98;;;2.67;;
4084;SDS011;2057;50.858;6.572;2022-09-27T06:07:08;4.93;;;2.50;;
4084;SDS011;2057;50.858;6.572;2022-09-27T06:09:33;11.87;;;5.63;;
4084;SDS011;2057;50.858;6.572;2022-09-27T06:11:59;21.67;;;8.53;;
4084;SDS011;2057;50.858;6.572;2022-09-27T06:14:24;26.43;;;8.50;;
4084;SDS011;2057;50.858;6.572;2022-09-27T06:16:51;90.78;;;27.08;;
4084;SDS011;2057;50.858;6.572;2022-09-27T06:19:18;23.30;;;8.60;;
4084;SDS011;2057;50.858;6.572;2022-09-27T06:21:43;72.23;;;23.30;;
4084;SDS011;2057;50.858;6.572;2022-09-27T06:24:08;52.53;;;15.33;;
4084;SDS011;2057;50.858;6.572;2022-09-27T06:26:34;48.50;;;14.40;;
4084;SDS011;2057;50.858;6.572;2022-09-27T06:29:00;36.53;;;13.20;;
4084;SDS011;2057;50.858;6.572;2022-09-27T06:31:25;38.60;;;14.83;;
4084;SDS011;2057;50.858;6.572;2022-09-27T06:33:51;37.60;;;12.93;;
4084;SDS011;2057;50.858;6.572;2022-09-27T06:36:16;22.43;;;9.57;;
4084;SDS011;2057;50.858;6.572;2022-09-27T06:38:42;13.47;;;5.23;;
4084;SDS011;2057;50.858;6.572;2022-09-27T06:41:09;15.93;;;6.50;;
4084;SDS011;2057;50.858;6.572;2022-09-27T06:43:35;10.83;;;5.90;;
4084;SDS011;2057;50.858;6.572;2022-09-27T06:46:01;9.70;;;4.77;;
4084;SDS011;2057;50.858;6.572;2022-09-27T06:48:29;4.90;;;3.30;;
4084;SDS011;2057;50.858;6.572;2022-09-27T06:50:56;11.90;;;4.30;;
4084;SDS011;2057;50.858;6.572;2022-09-27T06:53:22;3.10;;;2.30;;
4084;SDS011;2057;50.858;6.572;2022-09-27T06:55:48;7.33;;;2.23;;
4084;SDS011;2057;50.858;6.572;2022-09-27T06:58:15;2.33;;;1.73;;
4084;SDS011;2057;50.858;6.572;2022-09-27T07:01:00;3.37;;;1.10;;
4084;SDS011;2057;50.858;6.572;2022-09-27T07:03:25;7.70;;;1.93;;
4084;SDS011;2057;50.858;6.572;2022-09-27T07:05:59;1.70;;;1.37;;
4084;SDS011;2057;50.858;6.572;2022-09-27T07:08:27;6.13;;;1.83;;
4084;SDS011;2057;50.858;6.572;2022-09-27T07:11:00;3.83;;;2.20;;
4084;SDS011;2057;50.858;6.572;2022-09-27T07:13:28;5.43;;;1.73;;
4084;SDS011;2057;50.858;6.572;2022-09-27T07:15:55;3.43;;;2.33;;
4084;SDS011;2057;50.858;6.572;2022-09-27T07:18:21;1.60;;;1.50;;
4084;SDS011;2057;50.858;6.572;2022-09-27T07:20:46;3.90;;;2.33;;
4084;SDS011;2057;50.858;6.572;2022-09-27T07:23:11;2.73;;;1.70;;
4084;SDS011;2057;50.858;6.572;2022-09-27T07:25:38;1.50;;;1.40;;
4084;SDS011;2057;50.858;6.572;2022-09-27T07:28:05;8.43;;;1.47;;
4084;SDS011;2057;50.858;6.572;2022-09-27T07:30:33;7.57;;;2.17;;
4084;SDS011;2057;50.858;6.572;2022-09-27T07:33:03;28.00;;;11.43;;
4084;SDS011;2057;50.858;6.572;2022-09-27T07:35:29;54.10;;;16.57;;
4084;SDS011;2057;50.858;6.572;2022-09-27T07:37:55;35.47;;;11.47;;
4084;SDS011;2057;50.858;6.572;2022-09-27T07:40:22;13.50;;;5.40;;
4084;SDS011;2057;50.858;6.572;2022-09-27T07:42:52;74.43;;;25.07;;
4084;SDS011;2057;50.858;6.572;2022-09-27T07:45:22;59.90;;;22.20;;
4084;SDS011;2057;50.858;6.572;2022-09-27T07:47:47;113.23;;;58.13;;
4084;SDS011;2057;50.858;6.572;2022-09-27T07:50:13;52.63;;;30.27;;
4084;SDS011;2057;50.858;6.572;2022-09-27T07:52:39;28.90;;;22.90;;
4084;SDS011;2057;50.858;6.572;2022-09-27T07:55:06;25.30;;;19.10;;
4084;SDS011;2057;50.858;6.572;2022-09-27T07:57:34;10.77;;;8.30;;
4084;SDS011;2057;50.858;6.572;2022-09-27T08:00:00;9.93;;;5.97;;
4084;SDS011;2057;50.858;6.572;2022-09-27T08:02:26;3.37;;;3.17;;
4084;SDS011;2057;50.858;6.572;2022-09-27T08:04:51;3.77;;;2.40;;
4084;SDS011;2057;50.858;6.572;2022-09-27T08:07:17;1.70;;;1.60;;
4084;SDS011;2057;50.858;6.572;2022-09-27T08:09:42;6.63;;;1.90;;
4084;SDS011;2057;50.858;6.572;2022-09-27T08:12:08;3.30;;;1.70;;
4084;SDS011;2057;50.858;6.572;2022-09-27T08:14:34;13.13;;;1.67;;
4084;SDS011;2057;50.858;6.572;2022-09-27T08:17:00;8.27;;;1.60;;
4084;SDS011;2057;50.858;6.572;2022-09-27T08:19:25;1.67;;;1.50;;
4084;SDS011;2057;50.858;6.572;2022-09-27T08:21:51;4.60;;;2.10;;
4084;SDS011;2057;50.858;6.572;2022-09-27T08:24:19;1.67;;;1.57;;
4084;SDS011;2057;50.858;6.572;2022-09-27T08:26:48;3.60;;;1.63;;
4084;SDS011;2057;50.858;6.572;2022-09-27T08:29:13;1.90;;;1.40;;
4084;SDS011;2057;50.858;6.572;2022-09-27T08:31:38;2.97;;;2.23;;
4084;SDS011;2057;50.858;6.572;2022-09-27T08:34:04;3.20;;;1.73;;
4084;SDS011;2057;50.858;6.572;2022-09-27T08:36:29;3.83;;;2.20;;
4084;SDS011;2057;50.858;6.572;2022-09-27T08:38:56;3.80;;;2.37;;
4084;SDS011;2057;50.858;6.572;2022-09-27T08:44:51;2.57;;;2.43;;
4084;SDS011;2057;50.858;6.572;2022-09-27T08:47:30;2.73;;;1.60;;
4084;SDS011;2057;50.858;6.572;2022-09-27T08:50:02;2.93;;;2.73;;
4084;SDS011;2057;50.858;6.572;2022-09-27T08:52:35;2.47;;;1.70;;
4084;SDS011;2057;50.858;6.572;2022-09-27T08:55:07;4.67;;;1.80;;
4084;SDS011;2057;50.858;6.572;2022-09-27T08:57:54;2.73;;;2.33;;
4084;SDS011;2057;50.858;6.572;2022-09-27T09:00:22;3.87;;;2.40;;
4084;SDS011;2057;50.858;6.572;2022-09-27T09:02:52;9.27;;;2.03;;
4084;SDS011;2057;50.858;6.572;2022-09-27T09:05:25;3.77;;;2.40;;
4084;SDS011;2057;50.858;6.572;2022-09-27T09:26:59;5.60;;;2.50;;
4084;SDS011;2057;50.858;6.572;2022-09-27T09:29:53;5.80;;;2.70;;
4084;SDS011;2057;50.858;6.572;2022-09-27T09:32:47;9.30;;;2.23;;
4084;SDS011;2057;50.858;6.572;2022-09-27T09:35:24;2.00;;;1.40;;
4084;SDS011;2057;50.858;6.572;2022-09-27T09:38:02;3.60;;;2.17;;
4084;SDS011;2057;50.858;6.572;2022-09-27T09:40:38;5.07;;;2.60;;
4084;SDS011;2057;50.858;6.572;2022-09-27T09:43:20;6.90;;;2.90;;
4084;SDS011;2057;50.858;6.572;2022-09-27T09:48:38;2.13;;;1.93;;
4084;SDS011;2057;50.858;6.572;2022-09-27T09:51:37;6.73;;;2.10;;
4084;SDS011;2057;50.858;6.572;2022-09-27T09:54:09;3.67;;;2.00;;
4084;SDS011;2057;50.858;6.572;2022-09-27T10:02:32;2.07;;;1.70;;
4084;SDS011;2057;50.858;6.572;2022-09-27T10:05:01;3.00;;;2.40;;
4084;SDS011;2057;50.858;6.572;2022-09-27T10:07:31;4.60;;;2.30;;
4084;SDS011;2057;50.858;6.572;2022-09-27T10:09:59;7.37;;;2.77;;
4084;SDS011;2057;50.858;6.572;2022-09-27T10:12:26;8.13;;;2.50;;
4084;SDS011;2057;50.858;6.572;2022-09-27T10:14:52;4.57;;;2.30;;
4084;SDS011;2057;50.858;6.572;2022-09-27T10:17:22;6.60;;;2.87;;
4084;SDS011;2057;50.858;6.572;2022-09-27T10:19:52;10.40;;;4.87;;
4084;SDS011;2057;50.858;6.572;2022-09-27T10:22:23;6.37;;;3.73;;
4084;SDS011;2057;50.858;6.572;2022-09-27T10:24:58;7.30;;;3.10;;
4084;SDS011;2057;50.858;6.572;2022-09-27T10:27:37;6.67;;;3.23;;
4084;SDS011;2057;50.858;6.572;2022-09-27T10:30:19;6.73;;;3.10;;
4084;SDS011;2057;50.858;6.572;2022-09-27T10:32:49;5.10;;;2.80;;
4084;SDS011;2057;50.858;6.572;2022-09-27T10:35:19;4.63;;;2.70;;
4084;SDS011;2057;50.858;6.572;2022-09-27T10:37:45;4.07;;;2.80;;
4084;SDS011;2057;50.858;6.572;2022-09-27T10:40:25;5.53;;;2.80;;
4084;SDS011;2057;50.858;6.572;2022-09-27T10:42:54;4.70;;;2.60;;
4084;SDS011;2057;50.858;6.572;2022-09-27T10:48:00;10.40;;;3.70;;
4084;SDS011;2057;50.858;6.572;2022-09-27T10:50:27;3.80;;;3.40;;
4084;SDS011;2057;50.858;6.572;2022-09-27T10:53:06;5.67;;;3.87;;
4084;SDS011;2057;50.858;6.572;2022-09-27T10:55:38;6.23;;;3.00;;
4084;SDS011;2057;50.858;6.572;2022-09-27T10:58:06;6.70;;;3.90;;
4084;SDS011;2057;50.858;6.572;2022-09-27T11:00:39;8.63;;;3.07;;
4084;SDS011;2057;50.858;6.572;2022-09-27T11:03:06;10.13;;;4.23;;
4084;SDS011;2057;50.858;6.572;2022-09-27T11:05:38;5.50;;;2.87;;
4084;SDS011;2057;50.858;6.572;2022-09-27T11:11:11;8.13;;;2.83;;
4084;SDS011;2057;50.858;6.572;2022-09-27T11:13:56;4.43;;;3.20;;
4084;SDS011;2057;50.858;6.572;2022-09-27T11:30:20;6.33;;;3.40;;
4084;SDS011;2057;50.858;6.572;2022-09-27T11:51:55;4.20;;;3.33;;
4084;SDS011;2057;50.858;6.572;2022-09-27T11:54:37;3.97;;;2.37;;
4084;SDS011;2057;50.858;6.572;2022-09-27T11:57:29;4.47;;;2.90;;
4084;SDS011;2057;50.858;6.572;2022-09-27T12:08:59;4.13;;;2.27;;
4084;SDS011;2057;50.858;6.572;2022-09-27T12:14:03;2.13;;;1.77;;
4084;SDS011;2057;50.858;6.572;2022-09-27T12:16:35;8.43;;;1.87;;
4084;SDS011;2057;50.858;6.572;2022-09-27T12:19:03;9.47;;;5.60;;
4084;SDS011;2057;50.858;6.572;2022-09-27T12:21:39;9.00;;;2.40;;
4084;SDS011;2057;50.858;6.572;2022-09-27T12:24:08;5.37;;;2.20;;
4084;SDS011;2057;50.858;6.572;2022-09-27T12:26:43;3.80;;;1.93;;
4084;SDS011;2057;50.858;6.572;2022-09-27T12:29:24;4.87;;;2.70;;
4084;SDS011;2057;50.858;6.572;2022-09-27T12:37:50;4.23;;;1.33;;
4084;SDS011;2057;50.858;6.572;2022-09-27T12:40:37;4.40;;;1.20;;
4084;SDS011;2057;50.858;6.572;2022-09-27T12:43:15;4.90;;;1.60;;
4084;SDS011;2057;50.858;6.572;2022-09-27T12:51:39;2.73;;;1.20;;
4084;SDS011;2057;50.858;6.572;2022-09-27T13:04:59;2.63;;;1.10;;
4084;SDS011;2057;50.858;6.572;2022-09-27T13:08:08;8.03;;;1.80;;
4084;SDS011;2057;50.858;6.572;2022-09-27T13:13:28;4.70;;;1.43;;
4084;SDS011;2057;50.858;6.572;2022-09-27T13:15:57;5.00;;;1.47;;
4084;SDS011;2057;50.858;6.572;2022-09-27T13:18:28;1.53;;;1.23;;
4084;SDS011;2057;50.858;6.572;2022-09-27T13:21:05;2.20;;;1.03;;
4084;SDS011;2057;50.858;6.572;2022-09-27T13:26:19;2.60;;;0.90;;
4084;SDS011;2057;50.858;6.572;2022-09-27T13:29:19;3.60;;;1.03;;
4084;SDS011;2057;50.858;6.572;2022-09-27T13:42:43;3.63;;;1.40;;
4084;SDS011;2057;50.858;6.572;2022-09-27T13:45:23;2.47;;;1.50;;
4084;SDS011;2057;50.858;6.572;2022-09-27T13:47:53;6.73;;;1.83;;
4084;SDS011;2057;50.858;6.572;2022-09-27T13:50:23;6.53;;;1.30;;
4084;SDS011;2057;50.858;6.572;2022-09-27T13:52:57;3.40;;;2.00;;
4084;SDS011;2057;50.858;6.572;2022-09-27T14:00:49;13.27;;;1.80;;
4084;SDS011;2057;50.858;6.572;2022-09-27T14:06:16;6.80;;;1.70;;
4084;SDS011;2057;50.858;6.572;2022-09-27T14:08:46;21.03;;;2.20;;
4084;SDS011;2057;50.858;6.572;2022-09-27T14:11:18;5.50;;;1.33;;
4084;SDS011;2057;50.858;6.572;2022-09-27T14:13:48;5.00;;;1.57;;
4084;SDS011;2057;50.858;6.572;2022-09-27T14:16:16;13.67;;;2.63;;
4084;SDS011;2057;50.858;6.572;2022-09-27T14:18:46;2.60;;;1.33;;
4084;SDS011;2057;50.858;6.572;2022-09-27T14:27:05;3.07;;;1.67;;
4084;SDS011;2057;50.858;6.572;2022-09-27T14:32:13;12.63;;;1.63;;
4084;SDS011;2057;50.858;6.572;2022-09-27T14:34:43;3.80;;;1.47;;
4084;SDS011;2057;50.858;6.572;2022-09-27T14:37:17;4.10;;;1.90;;
4084;SDS011;2057;50.858;6.572;2022-09-27T14:39:52;4.07;;;1.00;;
4084;SDS011;2057;50.858;6.572;2022-09-27T14:42:19;6.57;;;1.67;;
4084;SDS011;2057;50.858;6.572;2022-09-27T14:44:47;3.70;;;1.73;;
4084;SDS011;2057;50.858;6.572;2022-09-27T14:47:24;3.40;;;1.33;;
4084;SDS011;2057;50.858;6.572;2022-09-27T14:49:54;0.80;;;0.80;;
4084;SDS011;2057;50.858;6.572;2022-09-27T14:52:22;2.97;;;0.90;;
4084;SDS011;2057;50.858;6.572;2022-09-27T14:54:59;1.50;;;0.90;;
4084;SDS011;2057;50.858;6.572;2022-09-27T14:57:27;1.43;;;1.00;;
4084;SDS011;2057;50.858;6.572;2022-09-27T14:59:57;2.85;;;1.40;;
4084;SDS011;2057;50.858;6.572;2022-09-27T15:02:24;2.80;;;1.27;;
4084;SDS011;2057;50.858;6.572;2022-09-27T15:04:50;1.50;;;1.20;;
4084;SDS011;2057;50.858;6.572;2022-09-27T15:07:18;6.20;;;1.70;;
4084;SDS011;2057;50.858;6.572;2022-09-27T15:09:46;4.10;;;1.20;;
4084;SDS011;2057;50.858;6.572;2022-09-27T15:12:15;9.10;;;2.00;;
4084;SDS011;2057;50.858;6.572;2022-09-27T15:14:46;5.00;;;1.80;;
4084;SDS011;2057;50.858;6.572;2022-09-27T15:17:18;5.93;;;2.20;;
4084;SDS011;2057;50.858;6.572;2022-09-27T15:19:54;2.07;;;1.30;;
4084;SDS011;2057;50.858;6.572;2022-09-27T15:22:32;4.60;;;1.73;;
4084;SDS011;2057;50.858;6.572;2022-09-27T15:25:04;11.70;;;4.67;;
4084;SDS011;2057;50.858;6.572;2022-09-27T15:27:38;6.03;;;3.60;;
4084;SDS011;2057;50.858;6.572;2022-09-27T15:30:04;9.07;;;2.73;;
4084;SDS011;2057;50.858;6.572;2022-09-27T15:32:30;7.90;;;4.00;;
4084;SDS011;2057;50.858;6.572;2022-09-27T15:34:55;6.60;;;2.70;;
4084;SDS011;2057;50.858;6.572;2022-09-27T15:37:36;6.43;;;3.40;;
4084;SDS011;2057;50.858;6.572;2022-09-27T15:42:58;5.30;;;2.27;;
4084;SDS011;2057;50.858;6.572;2022-09-27T15:45:29;5.60;;;3.10;;
4084;SDS011;2057;50.858;6.572;2022-09-27T15:48:11;8.80;;;3.03;;
4084;SDS011;2057;50.858;6.572;2022-09-27T15:50:39;3.00;;;1.50;;
4084;SDS011;2057;50.858;6.572;2022-09-27T15:53:08;8.80;;;2.13;;
4084;SDS011;2057;50.858;6.572;2022-09-27T15:55:40;7.50;;;3.00;;
4084;SDS011;2057;50.858;6.572;2022-09-27T15:58:13;4.77;;;2.63;;
4084;SDS011;2057;50.858;6.572;2022-09-27T16:00:49;3.13;;;1.87;;
4084;SDS011;2057;50.858;6.572;2022-09-27T16:03:18;6.53;;;2.37;;
4084;SDS011;2057;50.858;6.572;2022-09-27T16:05:44;4.53;;;1.83;;
4084;SDS011;2057;50.858;6.572;2022-09-27T16:08:09;2.50;;;2.00;;
4084;SDS011;2057;50.858;6.572;2022-09-27T16:10:37;6.73;;;3.17;;
4084;SDS011;2057;50.858;6.572;2022-09-27T16:13:03;3.13;;;2.10;;
4084;SDS011;2057;50.858;6.572;2022-09-27T16:15:29;3.97;;;2.43;;
4084;SDS011;2057;50.858;6.572;2022-09-27T16:17:55;10.50;;;4.83;;
4084;SDS011;2057;50.858;6.572;2022-09-27T16:20:22;11.13;;;4.73;;
4084;SDS011;2057;50.858;6.572;2022-09-27T16:22:50;7.53;;;3.70;;
4084;SDS011;2057;50.858;6.572;2022-09-27T16:25:17;8.70;;;4.27;;
4084;SDS011;2057;50.858;6.572;2022-09-27T16:27:43;37.83;;;12.23;;
4084;SDS011;2057;50.858;6.572;2022-09-27T16:30:09;24.63;;;8.73;;
4084;SDS011;2057;50.858;6.572;2022-09-27T16:32:38;43.77;;;13.30;;
4084;SDS011;2057;50.858;6.572;2022-09-27T16:35:08;35.93;;;13.23;;
4084;SDS011;2057;50.858;6.572;2022-09-27T16:37:34;5.20;;;3.10;;
4084;SDS011;2057;50.858;6.572;2022-09-27T16:40:00;8.53;;;2.20;;
4084;SDS011;2057;50.858;6.572;2022-09-27T16:42:27;7.60;;;2.10;;
4084;SDS011;2057;50.858;6.572;2022-09-27T16:44:52;8.37;;;2.63;;
4084;SDS011;2057;50.858;6.572;2022-09-27T16:47:18;6.90;;;2.33;;
4084;SDS011;2057;50.858;6.572;2022-09-27T16:49:44;8.13;;;2.50;;
4084;SDS011;2057;50.858;6.572;2022-09-27T16:52:28;2.07;;;1.50;;
4084;SDS011;2057;50.858;6.572;2022-09-27T16:54:58;4.23;;;2.17;;
4084;SDS011;2057;50.858;6.572;2022-09-27T16:57:24;6.13;;;2.10;;
4084;SDS011;2057;50.858;6.572;2022-09-27T16:59:52;4.40;;;2.40;;
4084;SDS011;2057;50.858;6.572;2022-09-27T17:02:20;7.83;;;3.10;;
4084;SDS011;2057;50.858;6.572;2022-09-27T17:04:45;4.50;;;2.30;;
4084;SDS011;2057;50.858;6.572;2022-09-27T17:07:11;7.93;;;2.53;;
4084;SDS011;2057;50.858;6.572;2022-09-27T17:09:36;6.53;;;2.70;;
4084;SDS011;2057;50.858;6.572;2022-09-27T17:12:01;11.43;;;3.00;;
4084;SDS011;2057;50.858;6.572;2022-09-27T17:14:27;3.90;;;1.90;;
4084;SDS011;2057;50.858;6.572;2022-09-27T17:16:52;7.27;;;3.10;;
4084;SDS011;2057;50.858;6.572;2022-09-27T17:19:18;16.73;;;2.53;;
4084;SDS011;2057;50.858;6.572;2022-09-27T17:21:44;8.27;;;3.10;;
4084;SDS011;2057;50.858;6.572;2022-09-27T17:24:10;11.00;;;3.13;;
4084;SDS011;2057;50.858;6.572;2022-09-27T17:26:36;11.23;;;2.60;;
4084;SDS011;2057;50.858;6.572;2022-09-27T17:29:02;9.27;;;2.30;;
4084;SDS011;2057;50.858;6.572;2022-09-27T17:31:28;8.97;;;3.73;;
4084;SDS011;2057;50.858;6.572;2022-09-27T17:33:55;4.73;;;3.33;;
4084;SDS011;2057;50.858;6.572;2022-09-27T17:36:23;6.33;;;3.17;;
4084;SDS011;2057;50.858;6.572;2022-09-27T17:38:50;9.07;;;3.00;;
4084;SDS011;2057;50.858;6.572;2022-09-27T17:41:17;14.57;;;3.40;;
4084;SDS011;2057;50.858;6.572;2022-09-27T17:43:44;10.23;;;4.10;;
4084;SDS011;2057;50.858;6.572;2022-09-27T17:46:20;9.10;;;3.50;;
4084;SDS011;2057;50.858;6.572;2022-09-27T17:48:47;12.27;;;3.47;;
4084;SDS011;2057;50.858;6.572;2022-09-27T17:51:34;4.40;;;2.90;;
4084;SDS011;2057;50.858;6.572;2022-09-27T17:54:01;8.73;;;2.90;;
4084;SDS011;2057;50.858;6.572;2022-09-27T17:56:28;15.20;;;3.40;;
4084;SDS011;2057;50.858;6.572;2022-09-27T17:58:57;10.20;;;3.93;;
4084;SDS011;2057;50.858;6.572;2022-09-27T18:01:23;8.67;;;3.53;;
4084;SDS011;2057;50.858;6.572;2022-09-27T18:03:53;11.30;;;3.90;;
4084;SDS011;2057;50.858;6.572;2022-09-27T18:06:20;8.00;;;2.57;;
4084;SDS011;2057;50.858;6.572;2022-09-27T18:08:46;4.87;;;3.40;;
4084;SDS011;2057;50.858;6.572;2022-09-27T18:11:13;7.70;;;3.37;;
4084;SDS011;2057;50.858;6.572;2022-09-27T18:13:40;38.97;;;17.47;;
4084;SDS011;2057;50.858;6.572;2022-09-27T18:16:11;17.20;;;9.10;;
4084;SDS011;2057;50.858;6.572;2022-09-27T18:18:41;30.43;;;16.20;;
4084;SDS011;2057;50.858;6.572;2022-09-27T18:21:12;8.53;;;4.63;;
4084;SDS011;2057;50.858;6.572;2022-09-27T18:23:40;8.40;;;4.60;;
4084;SDS011;2057;50.858;6.572;2022-09-27T18:26:07;17.67;;;4.63;;
4084;SDS011;2057;50.858;6.572;2022-09-27T18:28:34;7.97;;;4.07;;
4084;SDS011;2057;50.858;6.572;2022-09-27T18:31:02;7.80;;;4.40;;
4084;SDS011;2057;50.858;6.572;2022-09-27T18:33:33;6.77;;;4.07;;
4084;SDS011;2057;50.858;6.572;2022-09-27T18:36:05;7.93;;;4.03;;